createdAt,value
2018-02-13T00:00:06.392Z,51.60
2018-02-13T00:01:07.803Z,52.20
2018-02-13T00:02:10.331Z,52.00
2018-02-13T00:03:12.473Z,51.90
2018-02-13T00:04:14.645Z,52.20
2018-02-13T00:05:16.097Z,52.10
2018-02-13T00:06:17.483Z,51.80
2018-02-13T00:07:19.113Z,51.40
2018-02-13T00:08:20.521Z,51.80
2018-02-13T00:09:22.181Z,51.70
2018-02-13T00:10:24.574Z,52.00
2018-02-13T00:11:25.993Z,51.40
2018-02-13T00:12:28.877Z,51.60
2018-02-13T00:13:30.609Z,52.10
2018-02-13T00:14:32.551Z,51.60
2018-02-13T00:15:35.097Z,51.90
2018-02-13T00:16:37.253Z,52.20
2018-02-13T00:17:38.817Z,52.50
2018-02-13T00:18:41.139Z,53.00
2018-02-13T00:19:42.582Z,52.70
2018-02-13T00:20:44.714Z,52.20
2018-02-13T00:21:46.113Z,52.50
2018-02-13T00:22:49.219Z,52.50
2018-02-13T00:23:50.610Z,51.80
2018-02-13T00:24:52.445Z,51.60
2018-02-13T00:25:53.907Z,52.10
2018-02-13T00:26:55.305Z,52.70
2018-02-13T00:27:56.751Z,51.90
2018-02-13T00:28:58.148Z,52.80
2018-02-13T00:30:01.334Z,51.40
2018-02-13T00:31:03.723Z,51.80
2018-02-13T00:32:05.343Z,51.40
2018-02-13T00:33:06.739Z,50.90
2018-02-13T00:34:08.180Z,51.70
2018-02-13T00:35:10.117Z,51.00
2018-02-13T00:36:12.259Z,51.20
2018-02-13T00:37:13.641Z,51.70
2018-02-13T00:38:15.309Z,51.40
2018-02-13T00:39:16.727Z,50.90
2018-02-13T00:40:18.149Z,51.20
2018-02-13T00:41:19.713Z,51.50
2018-02-13T00:42:22.629Z,51.20
2018-02-13T00:43:24.007Z,51.40
2018-02-13T00:44:25.575Z,52.20
2018-02-13T00:45:27.413Z,52.60
2018-02-13T00:47:31.889Z,51.50
2018-02-13T00:48:33.289Z,52.60
2018-02-13T00:49:35.443Z,53.40
2018-02-13T00:50:37.615Z,52.90
2018-02-13T00:51:39.755Z,52.50
2018-02-13T00:52:41.307Z,52.00
2018-02-13T00:53:42.730Z,52.60
2018-02-13T00:54:44.191Z,53.20
2018-02-13T00:55:46.511Z,53.50
2018-02-13T00:56:48.035Z,52.90
2018-02-13T00:57:49.454Z,53.00
2018-02-13T00:58:50.837Z,51.70
2018-02-13T00:59:52.240Z,51.90
2018-02-13T01:00:53.917Z,52.40
2018-02-13T01:01:55.313Z,53.10
2018-02-13T01:02:56.733Z,52.90
2018-02-13T01:03:58.875Z,53.30
2018-02-13T01:06:04.643Z,54.10
2018-02-13T01:07:07.528Z,53.80
2018-02-13T01:08:09.669Z,53.60
2018-02-13T01:09:12.233Z,53.10
2018-02-13T01:10:14.375Z,54.00
2018-02-13T01:11:15.780Z,53.90
2018-02-13T01:12:17.181Z,53.90
2018-02-13T01:13:19.313Z,54.00
2018-02-13T01:15:24.003Z,53.30
2018-02-13T01:16:25.407Z,53.90
2018-02-13T01:17:57.696Z,52.50
2018-02-13T01:18:59.162Z,53.50
2018-02-13T01:20:00.561Z,52.90
2018-02-13T01:21:02.048Z,53.80
2018-02-13T01:22:04.549Z,53.20
2018-02-13T01:24:09.367Z,52.80
2018-02-13T01:25:10.781Z,52.40
2018-02-13T01:26:12.185Z,53.20
2018-02-13T01:27:14.848Z,53.10
2018-02-13T01:28:17.365Z,53.20
2018-02-13T01:29:18.753Z,53.30
2018-02-13T01:30:20.488Z,53.90
2018-02-13T01:31:21.897Z,53.50
2018-02-13T01:32:23.306Z,51.90
2018-02-13T01:33:24.873Z,53.30
2018-02-13T01:35:30.115Z,51.70
2018-02-13T01:36:32.997Z,52.40
2018-02-13T01:37:34.677Z,52.60
2018-02-13T01:38:36.172Z,52.10
2018-02-13T01:39:37.589Z,52.80
2018-02-13T01:40:39.721Z,53.60
2018-02-13T01:41:41.323Z,53.10
2018-02-13T01:42:43.078Z,52.80
2018-02-13T01:43:44.481Z,52.80
2018-02-13T01:44:45.857Z,53.00
2018-02-13T01:45:47.527Z,53.60
2018-02-13T01:46:48.951Z,53.60
2018-02-13T01:47:51.102Z,54.00
2018-02-13T01:48:53.273Z,53.60
2018-02-13T01:49:55.393Z,53.50
2018-02-13T01:50:56.788Z,52.90
2018-02-13T01:51:58.185Z,52.70
2018-02-13T01:52:59.812Z,52.90
2018-02-13T01:54:01.223Z,52.90
2018-02-13T01:55:02.621Z,53.00
2018-02-13T01:56:04.773Z,53.50
2018-02-13T01:57:07.279Z,53.00
2018-02-13T01:58:08.965Z,53.00
2018-02-13T01:59:10.365Z,52.90
2018-02-13T02:00:11.815Z,52.90
2018-02-13T02:01:13.277Z,52.90
2018-02-13T02:02:22.544Z,52.90
2018-02-13T02:03:25.007Z,52.90
2018-02-13T02:05:29.469Z,52.40
2018-02-13T02:06:30.893Z,52.50
2018-02-13T02:07:32.265Z,52.60
2018-02-13T02:08:33.963Z,52.70
2018-02-13T02:09:35.357Z,52.90
2018-02-13T02:10:37.467Z,52.50
2018-02-13T02:11:38.849Z,52.60
2018-02-13T02:12:40.220Z,52.90
2018-02-13T02:13:42.661Z,53.40
2018-02-13T02:14:44.037Z,53.00
2018-02-13T02:15:45.437Z,52.30
2018-02-13T02:16:46.861Z,52.50
2018-02-13T02:17:48.289Z,52.70
2018-02-13T02:18:49.693Z,52.10
2018-02-13T02:19:51.101Z,52.00
2018-02-13T02:20:52.493Z,52.40
2018-02-13T02:21:53.889Z,52.00
2018-02-13T02:22:56.029Z,53.10
2018-02-13T02:23:57.701Z,52.60
2018-02-13T02:24:59.493Z,51.20
2018-02-13T02:26:00.869Z,51.10
2018-02-13T02:27:02.277Z,52.40
2018-02-13T02:28:03.669Z,52.50
2018-02-13T02:29:06.120Z,53.10
2018-02-13T02:30:08.522Z,53.00
2018-02-13T02:31:10.064Z,52.50
2018-02-13T02:32:12.539Z,52.60
2018-02-13T02:33:14.126Z,52.60
2018-02-13T02:34:16.759Z,52.90
2018-02-13T02:35:18.176Z,53.00
2018-02-13T02:36:19.755Z,53.10
2018-02-13T02:37:22.469Z,53.10
2018-02-13T02:38:24.961Z,53.40
2018-02-13T02:39:26.645Z,53.40
2018-02-13T02:40:28.221Z,53.60
2018-02-13T02:41:30.434Z,53.90
2018-02-13T02:42:51.075Z,53.60
2018-02-13T02:43:52.690Z,53.20
2018-02-13T02:44:55.122Z,53.40
2018-02-13T02:45:56.521Z,52.90
2018-02-13T02:46:58.139Z,52.70
2018-02-13T02:47:59.529Z,51.90
2018-02-13T02:49:00.905Z,53.00
2018-02-13T02:50:02.511Z,53.30
2018-02-13T02:51:03.896Z,53.20
2018-02-13T02:52:05.277Z,53.40
2018-02-13T02:53:06.914Z,53.20
2018-02-13T02:54:08.309Z,52.50
2018-02-13T02:55:10.001Z,53.20
2018-02-13T02:57:14.692Z,52.80
2018-02-13T02:58:16.069Z,52.70
2018-02-13T02:59:17.564Z,52.60
2018-02-13T03:00:19.141Z,52.90
2018-02-13T03:01:21.297Z,53.70
2018-02-13T03:02:23.797Z,53.20
2018-02-13T03:03:25.276Z,53.10
2018-02-13T03:04:26.673Z,53.10
2018-02-13T03:05:28.345Z,53.70
2018-02-13T03:06:29.869Z,53.80
2018-02-13T03:07:31.258Z,53.90
2018-02-13T03:08:32.645Z,53.70
2018-02-13T03:09:35.650Z,52.10
2018-02-13T03:10:37.320Z,52.30
2018-02-13T03:11:39.453Z,53.40
2018-02-13T03:12:42.349Z,53.20
2018-02-13T03:13:45.339Z,52.50
2018-02-13T03:14:46.905Z,52.10
2018-02-13T03:15:48.589Z,51.60
2018-02-13T03:16:50.713Z,51.30
2018-02-13T03:17:52.251Z,50.80
2018-02-13T03:18:53.649Z,50.40
2018-02-13T03:19:56.145Z,51.80
2018-02-13T03:20:57.929Z,52.00
2018-02-13T03:21:59.345Z,52.10
2018-02-13T03:23:00.725Z,52.60
2018-02-13T03:24:02.172Z,52.50
2018-02-13T03:25:03.569Z,52.70
2018-02-13T03:26:05.269Z,52.90
2018-02-13T03:27:06.825Z,52.40
2018-02-13T03:28:09.045Z,53.50
2018-02-13T03:29:10.437Z,53.10
2018-02-13T03:30:11.960Z,52.60
2018-02-13T03:31:14.598Z,53.50
2018-02-13T03:32:15.985Z,53.10
2018-02-13T03:33:17.581Z,53.10
2018-02-13T03:34:19.040Z,53.10
2018-02-13T03:35:20.469Z,52.40
2018-02-13T03:36:22.149Z,52.50
2018-02-13T03:37:24.484Z,53.10
2018-02-13T03:38:25.893Z,52.80
2018-02-13T03:39:27.269Z,52.90
2018-02-13T03:40:28.737Z,52.90
2018-02-13T03:41:30.429Z,53.10
2018-02-13T03:42:33.301Z,52.20
2018-02-13T03:43:34.701Z,52.40
2018-02-13T03:44:36.093Z,52.60
2018-02-13T03:45:37.482Z,52.60
2018-02-13T03:46:38.993Z,52.80
2018-02-13T03:47:41.197Z,53.40
2018-02-13T03:48:43.321Z,52.10
2018-02-13T03:49:45.461Z,52.50
2018-02-13T03:50:48.341Z,52.30
2018-02-13T03:51:50.716Z,52.90
2018-02-13T03:52:52.133Z,52.40
2018-02-13T03:53:53.513Z,52.40
2018-02-13T03:54:55.077Z,52.30
2018-02-13T03:55:57.213Z,52.40
2018-02-13T03:57:32.836Z,52.40
2018-02-13T03:58:34.965Z,52.70
2018-02-13T03:59:37.265Z,52.00
2018-02-13T04:00:38.697Z,52.10
2018-02-13T04:01:40.093Z,51.40
2018-02-13T04:02:42.675Z,51.30
2018-02-13T04:03:44.197Z,51.10
2018-02-13T04:04:45.621Z,51.70
2018-02-13T04:05:47.015Z,51.70
2018-02-13T04:06:49.475Z,52.50
2018-02-13T04:07:52.005Z,52.20
2018-02-13T04:08:53.421Z,52.30
2018-02-13T04:09:55.125Z,52.20
2018-02-13T04:10:57.271Z,52.60
2018-02-13T04:11:58.669Z,52.00
2018-02-13T04:13:00.638Z,52.10
2018-02-13T04:14:02.059Z,52.00
2018-02-13T04:15:03.465Z,52.20
2018-02-13T04:16:06.057Z,52.20
2018-02-13T04:17:07.461Z,52.40
2018-02-13T04:18:09.929Z,52.90
2018-02-13T04:19:12.429Z,52.50
2018-02-13T04:20:13.837Z,52.60
2018-02-13T04:21:15.998Z,52.90
2018-02-13T04:22:18.129Z,52.90
2018-02-13T04:23:19.553Z,52.40
2018-02-13T04:24:20.987Z,52.20
2018-02-13T04:25:22.417Z,52.30
2018-02-13T04:26:24.565Z,52.70
2018-02-13T04:27:25.973Z,52.30
2018-02-13T04:28:27.913Z,52.50
2018-02-13T04:29:29.329Z,52.40
2018-02-13T04:30:30.781Z,52.60
2018-02-13T04:31:33.082Z,53.10
2018-02-13T04:33:15.713Z,52.70
2018-02-13T04:34:17.687Z,52.80
2018-02-13T04:35:19.864Z,53.50
2018-02-13T04:36:22.381Z,53.10
2018-02-13T04:37:23.813Z,53.20
2018-02-13T04:38:25.497Z,52.50
2018-02-13T04:39:27.696Z,53.50
2018-02-13T04:40:29.933Z,53.80
2018-02-13T04:41:32.107Z,53.30
2018-02-13T04:42:34.257Z,54.40
2018-02-13T04:44:39.033Z,53.40
2018-02-13T04:45:40.752Z,53.50
2018-02-13T04:46:42.217Z,53.50
2018-02-13T04:47:43.609Z,53.50
2018-02-13T04:48:45.752Z,52.70
2018-02-13T04:51:54.063Z,52.40
2018-02-13T04:52:56.226Z,52.90
2018-02-13T04:53:57.828Z,52.60
2018-02-13T04:54:59.735Z,52.60
2018-02-13T04:56:01.166Z,52.90
2018-02-13T04:57:03.615Z,52.70
2018-02-13T04:58:05.141Z,52.20
2018-02-13T04:59:06.569Z,52.70
2018-02-13T05:00:08.133Z,52.70
2018-02-13T05:01:09.795Z,52.70
2018-02-13T05:02:11.193Z,52.70
2018-02-13T05:03:12.581Z,52.70
2018-02-13T05:04:13.949Z,53.20
2018-02-13T05:05:15.674Z,53.20
2018-02-13T05:06:17.839Z,53.40
2018-02-13T05:07:19.231Z,52.80
2018-02-13T05:08:20.613Z,52.90
2018-02-13T05:09:23.101Z,52.70
2018-02-13T05:10:24.853Z,52.90
2018-02-13T05:11:27.352Z,52.60
2018-02-13T05:12:28.805Z,52.60
2018-02-13T05:13:31.073Z,53.00
2018-02-13T05:14:33.985Z,52.40
2018-02-13T05:15:35.389Z,52.50
2018-02-13T05:16:37.533Z,53.00
2018-02-13T05:17:38.925Z,52.50
2018-02-13T05:18:40.315Z,52.80
2018-02-13T05:19:42.000Z,52.70
2018-02-13T05:20:43.661Z,52.60
2018-02-13T05:21:45.065Z,52.70
2018-02-13T05:22:46.463Z,52.60
2018-02-13T05:23:48.129Z,52.70
2018-02-13T05:24:50.280Z,53.10
2018-02-13T05:25:51.705Z,52.70
2018-02-13T05:26:53.101Z,52.40
2018-02-13T05:27:54.480Z,52.20
2018-02-13T05:28:55.874Z,52.00
2018-02-13T05:29:58.129Z,52.20
2018-02-13T05:31:00.545Z,52.20
2018-02-13T05:32:01.973Z,51.60
2018-02-13T05:33:03.353Z,51.90
2018-02-13T05:34:04.745Z,51.40
2018-02-13T05:35:06.139Z,51.70
2018-02-13T05:36:07.697Z,51.40
2018-02-13T05:37:09.954Z,52.70
2018-02-13T05:38:15.039Z,52.30
2018-02-13T05:39:17.177Z,52.10
2018-02-13T05:40:18.581Z,52.10
2018-02-13T05:41:21.133Z,52.60
2018-02-13T05:42:23.271Z,52.90
2018-02-13T05:43:24.663Z,52.60
2018-02-13T05:44:26.121Z,54.10
2018-02-13T05:45:27.673Z,52.80
2018-02-13T05:46:29.937Z,52.60
2018-02-13T05:47:31.361Z,52.60
2018-02-13T05:48:32.930Z,52.90
2018-02-13T05:49:34.321Z,52.50
2018-02-13T05:50:35.706Z,53.00
2018-02-13T05:51:37.413Z,52.60
2018-02-13T05:52:38.805Z,52.70
2018-02-13T05:53:40.205Z,52.50
2018-02-13T05:54:42.496Z,53.20
2018-02-13T05:55:43.883Z,52.80
2018-02-13T05:56:45.305Z,53.10
2018-02-13T05:57:47.441Z,53.70
2018-02-13T05:58:50.329Z,53.70
2018-02-13T05:59:52.505Z,53.80
2018-02-13T06:00:54.013Z,53.60
2018-02-13T06:01:55.921Z,53.40
2018-02-13T06:02:57.331Z,53.70
2018-02-13T06:03:58.722Z,53.70
2018-02-13T06:05:00.859Z,54.40
2018-02-13T06:06:02.261Z,53.80
2018-02-13T06:07:03.685Z,54.00
2018-02-13T06:08:05.065Z,53.60
2018-02-13T06:09:06.661Z,53.90
2018-02-13T06:10:09.818Z,53.40
2018-02-13T06:11:12.915Z,53.00
2018-02-13T06:12:16.274Z,53.10
2018-02-13T06:13:18.789Z,52.60
2018-02-13T06:14:20.174Z,52.70
2018-02-13T06:15:21.829Z,52.40
2018-02-13T06:18:30.337Z,52.40
2018-02-13T06:19:31.727Z,52.60
2018-02-13T06:20:33.505Z,52.70
2018-02-13T06:21:35.035Z,53.00
2018-02-13T06:22:37.141Z,55.20
2018-02-13T06:24:42.213Z,52.50
2018-02-13T06:25:44.527Z,52.50
2018-02-13T06:26:46.030Z,52.40
2018-02-13T06:27:47.691Z,52.60
2018-02-13T06:28:49.337Z,52.80
2018-02-13T06:33:01.425Z,52.80
2018-02-13T06:34:03.085Z,52.60
2018-02-13T06:35:04.787Z,52.50
2018-02-13T06:37:10.731Z,51.00
2018-02-13T06:38:12.335Z,50.90
2018-02-13T06:40:18.953Z,50.60
2018-02-13T06:41:21.531Z,50.70
2018-02-13T06:42:23.091Z,50.70
2018-02-13T06:43:25.883Z,51.10
2018-02-13T06:45:30.715Z,51.10
2018-02-13T06:46:32.311Z,51.20
2018-02-13T06:47:34.640Z,51.30
2018-02-13T06:48:36.493Z,51.50
2018-02-13T06:49:38.269Z,51.60
2018-02-13T06:51:42.999Z,51.40
2018-02-13T06:52:45.899Z,51.40
2018-02-13T06:54:50.695Z,51.20
2018-02-13T06:55:53.755Z,51.50
2018-02-13T06:56:55.443Z,51.60
2018-02-13T06:57:57.835Z,52.30
2018-02-13T06:58:59.597Z,51.90
2018-02-13T07:00:01.309Z,51.70
2018-02-13T07:02:06.179Z,51.70
2018-02-13T07:03:07.809Z,51.70
2018-02-13T07:04:09.527Z,51.90
2018-02-13T07:06:14.639Z,52.60
2018-02-13T07:07:17.762Z,52.50
2018-02-13T07:08:19.497Z,52.70
2018-02-13T07:09:21.317Z,52.50
2018-02-13T07:10:23.561Z,52.80
2018-02-13T07:11:25.156Z,52.80
2018-02-13T07:13:30.083Z,52.80
2018-02-13T07:14:31.901Z,52.80
2018-02-13T07:18:42.909Z,53.10
2018-02-13T07:22:53.966Z,53.20
2018-02-13T07:23:55.559Z,52.60
2018-02-13T07:24:57.065Z,52.00
2018-02-13T07:25:58.513Z,51.70
2018-02-13T07:28:03.440Z,51.90
2018-02-13T07:29:05.585Z,51.40
2018-02-13T07:30:08.956Z,51.90
2018-02-13T07:32:13.505Z,51.50
2018-02-13T07:33:15.033Z,50.80
2018-02-13T07:34:17.540Z,50.30
2018-02-13T07:35:18.949Z,50.30
2018-02-13T07:38:26.775Z,50.80
2018-02-13T07:39:28.189Z,50.80
2018-02-13T07:41:33.587Z,51.40
2018-02-13T07:42:34.985Z,51.40
2018-02-13T07:43:36.361Z,51.70
2018-02-13T07:44:37.837Z,51.80
2018-02-13T07:46:42.345Z,52.10
2018-02-13T07:49:49.994Z,52.70
2018-02-13T07:50:51.413Z,51.80
2018-02-13T07:51:53.549Z,52.50
2018-02-13T07:52:55.094Z,55.10
2018-02-13T07:53:56.592Z,52.90
2018-02-13T07:54:57.979Z,53.00
2018-02-13T07:56:00.601Z,53.10
2018-02-13T07:57:01.998Z,53.20
2018-02-13T07:58:04.525Z,53.10
2018-02-13T07:59:06.089Z,53.20
2018-02-13T08:00:08.621Z,53.20
2018-02-13T08:01:10.301Z,53.10
2018-02-13T08:04:18.064Z,53.30
2018-02-13T08:05:19.457Z,53.20
2018-02-13T08:07:24.181Z,53.60
2018-02-13T08:08:25.641Z,53.70
2018-02-13T08:09:27.042Z,53.60
2018-02-13T08:10:28.623Z,53.70
2018-02-13T08:11:30.278Z,53.70
2018-02-13T08:13:35.550Z,52.80
2018-02-13T08:14:37.030Z,52.60
2018-02-13T08:18:47.982Z,52.50
2018-02-13T08:19:49.381Z,52.40
2018-02-13T08:21:54.165Z,52.50
2018-02-13T08:22:55.550Z,52.50
2018-02-13T08:23:56.937Z,52.50
2018-02-13T08:24:58.329Z,52.10
2018-02-13T08:26:00.481Z,52.30
2018-02-13T08:27:02.895Z,52.40
2018-02-13T08:31:13.613Z,52.70
2018-02-13T08:32:15.097Z,52.90
2018-02-13T08:33:16.486Z,53.20
2018-02-13T08:34:18.605Z,53.00
2018-02-13T08:35:20.010Z,53.10
2018-02-13T08:36:21.597Z,53.10
2018-02-13T08:37:23.208Z,53.20
2018-02-13T08:38:24.597Z,53.40
2018-02-13T08:41:32.289Z,53.20
2018-02-13T08:43:38.566Z,53.20
2018-02-13T08:44:40.050Z,53.20
2018-02-13T08:45:41.699Z,52.60
2018-02-13T08:46:43.097Z,53.20
2018-02-13T08:47:44.653Z,52.60
2018-02-13T08:48:47.517Z,52.90
2018-02-13T08:49:48.918Z,53.00
2018-02-13T08:50:50.348Z,52.90
2018-02-13T08:51:51.903Z,52.60
2018-02-13T08:52:53.327Z,52.70
2018-02-13T08:53:54.721Z,52.90
2018-02-13T08:55:59.194Z,52.90
2018-02-13T08:57:00.573Z,52.80
2018-02-13T08:58:02.078Z,53.00
2018-02-13T08:59:03.453Z,52.70
2018-02-13T09:00:05.598Z,52.50
2018-02-13T09:02:10.077Z,52.20
2018-02-13T09:03:11.759Z,51.80
2018-02-13T09:04:14.630Z,51.40
2018-02-13T09:06:19.263Z,51.70
2018-02-13T09:08:24.601Z,52.50
2018-02-13T09:10:29.246Z,52.60
2018-02-13T09:11:30.675Z,52.80
2018-02-13T09:12:32.095Z,52.70
2018-02-13T09:13:34.829Z,52.90
2018-02-13T09:14:36.410Z,52.80
2018-02-13T09:15:38.571Z,52.70
2018-02-13T09:16:40.684Z,53.30
2018-02-13T09:17:42.277Z,52.80
2018-02-13T09:19:47.686Z,52.30
2018-02-13T09:20:49.141Z,51.80
2018-02-13T09:23:57.333Z,51.70
2018-02-13T09:27:04.974Z,52.20
2018-02-13T09:28:06.413Z,52.50
2018-02-13T09:29:08.562Z,51.70
2018-02-13T09:30:10.013Z,51.80
2018-02-13T09:31:11.413Z,51.70
2018-02-13T09:34:20.921Z,51.50
2018-02-13T09:35:22.325Z,51.40
2018-02-13T09:37:27.561Z,51.60
2018-02-13T09:38:29.135Z,51.50
2018-02-13T09:39:30.545Z,51.80
2018-02-13T09:40:31.925Z,51.90
2018-02-13T09:41:33.469Z,51.90
2018-02-13T09:42:35.757Z,50.30
2018-02-13T09:43:37.186Z,50.50
2018-02-13T09:44:38.620Z,49.60
2018-02-13T09:45:40.082Z,50.20
2018-02-13T09:46:41.689Z,50.50
2018-02-13T09:47:43.081Z,50.10
2018-02-13T09:49:48.942Z,49.10
2018-02-13T09:50:50.463Z,49.00
2018-02-13T09:51:52.609Z,48.50
2018-02-13T09:52:54.006Z,48.50
2018-02-13T09:53:55.561Z,49.70
2018-02-13T09:54:56.990Z,49.80
2018-02-13T09:55:58.489Z,48.60
2018-02-13T09:57:00.639Z,48.50
2018-02-13T09:58:03.709Z,48.30
2018-02-13T09:59:05.126Z,48.40
2018-02-13T10:00:06.955Z,48.30
2018-02-13T10:01:08.580Z,48.60
2018-02-13T10:02:09.996Z,48.60
2018-02-13T10:04:14.908Z,49.10
2018-02-13T10:05:16.577Z,49.60
2018-02-13T10:07:22.543Z,49.00
2018-02-13T10:08:24.926Z,49.40
2018-02-13T10:10:29.641Z,49.10
2018-02-13T10:12:34.197Z,48.80
2018-02-13T10:13:35.598Z,49.70
2018-02-13T10:14:37.086Z,49.20
2018-02-13T10:15:38.640Z,49.20
2018-02-13T10:17:43.234Z,48.30
2018-02-13T10:18:44.715Z,48.90
2018-02-13T10:20:49.681Z,48.10
2018-02-13T10:21:51.144Z,48.20
2018-02-13T10:22:52.735Z,49.60
2018-02-13T10:23:55.793Z,49.70
2018-02-13T10:24:58.665Z,50.20
2018-02-13T10:26:00.284Z,50.50
2018-02-13T10:28:04.866Z,49.70
2018-02-13T10:29:06.342Z,49.10
2018-02-13T10:30:07.886Z,49.30
2018-02-13T10:31:09.286Z,48.50
2018-02-13T10:34:17.068Z,49.60
2018-02-13T10:35:19.784Z,49.90
2018-02-13T10:36:21.471Z,50.10
2018-02-13T10:37:22.878Z,49.90
2018-02-13T10:38:24.415Z,50.20
2018-02-13T10:41:32.077Z,50.00
2018-02-13T10:42:34.843Z,49.20
2018-02-13T10:43:36.366Z,49.30
2018-02-13T10:46:44.106Z,49.00
2018-02-13T10:47:45.505Z,49.30
2018-02-13T10:49:50.029Z,49.00
2018-02-13T10:50:51.402Z,49.50
2018-02-13T10:52:56.328Z,48.00
2018-02-13T10:53:57.771Z,48.40
2018-02-13T10:54:59.262Z,48.40
2018-02-13T10:56:00.685Z,49.30
2018-02-13T10:57:03.748Z,49.00
2018-02-13T10:58:05.217Z,49.00
2018-02-13T10:59:06.635Z,48.90
2018-02-13T11:00:08.088Z,49.10
2018-02-13T11:01:15.373Z,49.30
2018-02-13T11:02:22.815Z,48.90
2018-02-13T11:03:24.206Z,48.90
2018-02-13T11:04:25.860Z,48.90
2018-02-13T11:05:27.271Z,49.20
2018-02-13T11:06:28.680Z,49.00
2018-02-13T11:07:30.350Z,47.50
2018-02-13T11:09:35.630Z,47.00
2018-02-13T11:10:37.036Z,47.30
2018-02-13T11:11:38.434Z,47.90
2018-02-13T11:14:46.358Z,46.60
2018-02-13T11:15:47.914Z,47.40
2018-02-13T11:16:49.480Z,46.70
2018-02-13T11:18:54.058Z,47.50
2018-02-13T11:19:55.484Z,47.30
2018-02-13T11:20:57.673Z,46.40
2018-02-13T11:21:59.104Z,45.90
2018-02-13T11:23:00.690Z,45.70
2018-02-13T11:24:02.078Z,45.30
2018-02-13T11:25:03.530Z,45.30
2018-02-13T11:27:08.055Z,47.10
2018-02-13T11:28:09.460Z,47.60
2018-02-13T11:30:14.682Z,47.80
2018-02-13T11:32:19.395Z,48.00
2018-02-13T11:35:27.232Z,47.90
2018-02-13T11:36:28.662Z,48.40
2018-02-13T11:37:30.069Z,48.70
2018-02-13T11:38:31.516Z,49.30
2018-02-13T11:40:36.209Z,49.00
2018-02-13T11:41:37.617Z,48.90
2018-02-13T11:42:39.080Z,49.50
2018-02-13T11:44:43.613Z,49.80
2018-02-13T11:45:45.244Z,48.60
2018-02-13T11:46:46.678Z,48.00
2018-02-13T11:48:51.232Z,46.30
2018-02-13T11:49:52.622Z,46.00
2018-02-13T11:50:54.020Z,45.60
2018-02-13T11:51:55.594Z,45.40
2018-02-13T11:52:57.880Z,46.30
2018-02-13T11:53:59.320Z,46.00
2018-02-13T11:55:00.870Z,45.60
2018-02-13T11:56:02.484Z,45.60
2018-02-13T11:58:07.010Z,47.00
2018-02-13T11:59:08.412Z,47.20
2018-02-13T12:01:13.407Z,47.70
2018-02-13T12:04:23.942Z,47.80
2018-02-13T12:07:32.690Z,48.40
2018-02-13T12:08:34.192Z,48.80
2018-02-13T12:09:35.630Z,49.80
2018-02-13T12:11:40.308Z,49.60
2018-02-13T12:12:41.728Z,50.00
2018-02-13T12:13:43.131Z,48.40
2018-02-13T12:14:44.696Z,48.80
2018-02-13T12:15:46.120Z,49.50
2018-02-13T12:16:48.680Z,48.20
2018-02-13T12:18:53.198Z,48.00
2018-02-13T12:19:54.902Z,47.90
2018-02-13T12:20:56.352Z,47.80
2018-02-13T12:21:57.742Z,44.90
2018-02-13T12:24:03.786Z,47.10
2018-02-13T12:25:05.434Z,47.40
2018-02-13T12:27:10.736Z,47.50
2018-02-13T12:28:12.285Z,47.20
2018-02-13T12:29:13.681Z,47.20
2018-02-13T12:30:15.108Z,47.80
2018-02-13T12:31:16.721Z,47.80
2018-02-13T12:32:19.658Z,46.90
2018-02-13T12:33:21.096Z,46.60
2018-02-13T12:34:22.758Z,46.10
2018-02-13T12:35:24.181Z,45.80
2018-02-13T12:36:25.656Z,45.60
2018-02-13T12:37:27.244Z,45.60
2018-02-13T12:38:28.814Z,46.00
2018-02-13T12:39:30.250Z,46.10
2018-02-13T12:40:31.886Z,46.00
2018-02-13T12:42:36.644Z,45.90
2018-02-13T12:43:38.224Z,45.60
2018-02-13T12:45:42.784Z,45.50
2018-02-13T12:46:44.188Z,46.00
2018-02-13T12:47:46.734Z,46.20
2018-02-13T12:48:48.146Z,46.00
2018-02-13T12:49:49.582Z,45.60
2018-02-13T12:50:51.448Z,45.60
2018-02-13T12:53:59.403Z,47.60
2018-02-13T12:56:04.342Z,47.80
2018-02-13T12:57:05.772Z,48.50
2018-02-13T12:58:07.204Z,48.30
2018-02-13T12:59:09.884Z,47.00
2018-02-13T13:00:11.290Z,47.30
2018-02-13T13:01:12.706Z,47.60
2018-02-13T13:02:14.302Z,48.40
2018-02-13T13:03:15.738Z,48.50
2018-02-13T13:05:20.269Z,47.10
2018-02-13T13:06:22.846Z,48.10
2018-02-13T13:07:24.288Z,48.20
2018-02-13T13:08:26.820Z,48.40
2018-02-13T13:10:31.624Z,48.60
2018-02-13T13:11:33.062Z,48.80
2018-02-13T13:12:34.444Z,48.70
2018-02-13T13:14:39.748Z,48.60
2018-02-13T13:15:41.136Z,48.60
2018-02-13T13:16:42.808Z,48.40
2018-02-13T13:17:44.196Z,48.70
2018-02-13T13:19:49.780Z,48.90
2018-02-13T13:20:52.662Z,48.80
2018-02-13T13:21:54.258Z,48.50
2018-02-13T13:22:55.668Z,47.80
2018-02-13T13:23:57.042Z,48.00
2018-02-13T13:24:58.650Z,47.50
2018-02-13T13:27:03.438Z,45.90
2018-02-13T13:28:05.072Z,46.70
2018-02-13T13:29:06.468Z,47.10
2018-02-13T13:31:10.992Z,47.80
2018-02-13T13:32:12.406Z,46.50
2018-02-13T13:34:17.676Z,44.90
2018-02-13T13:36:22.318Z,45.90
2018-02-13T13:37:23.728Z,45.50
2018-02-13T13:38:25.121Z,45.10
2018-02-13T13:39:26.742Z,44.00
2018-02-13T13:40:28.164Z,44.10
2018-02-13T13:41:30.652Z,44.60
2018-02-13T13:42:33.010Z,43.90
2018-02-13T13:43:34.602Z,43.50
2018-02-13T13:44:36.737Z,45.10
2018-02-13T13:45:38.344Z,45.00
2018-02-13T13:46:39.910Z,45.30
2018-02-13T13:47:41.324Z,44.90
2018-02-13T13:48:43.980Z,44.90
2018-02-13T13:49:46.844Z,45.00
2018-02-13T13:50:48.266Z,45.50
2018-02-13T13:51:49.640Z,45.60
2018-02-13T13:52:51.780Z,45.70
2018-02-13T13:53:53.182Z,46.60
2018-02-13T13:54:54.568Z,44.60
2018-02-13T13:55:56.714Z,44.70
2018-02-13T13:56:58.114Z,44.60
2018-02-13T13:57:59.538Z,43.50
2018-02-13T14:04:17.703Z,44.50
2018-02-13T14:05:19.344Z,44.50
2018-02-13T14:06:22.050Z,44.80
2018-02-13T14:07:23.454Z,44.70
2018-02-13T14:08:25.004Z,44.50
2018-02-13T14:09:26.577Z,44.80
2018-02-13T14:11:31.234Z,44.40
2018-02-13T14:15:42.128Z,46.90
2018-02-13T14:17:46.696Z,46.30
2018-02-13T14:18:49.019Z,46.50
2018-02-13T14:20:53.536Z,45.40
2018-02-13T14:21:55.858Z,46.00
2018-02-13T14:22:58.745Z,45.70
2018-02-13T14:24:00.168Z,45.80
2018-02-13T14:25:01.564Z,46.40
2018-02-13T14:29:12.486Z,46.60
2018-02-13T14:30:14.120Z,46.60
2018-02-13T14:31:15.532Z,45.40
2018-02-13T14:32:17.694Z,46.90
2018-02-13T14:33:20.072Z,46.70
2018-02-13T14:34:21.530Z,47.00
2018-02-13T14:38:32.630Z,45.90
2018-02-13T14:40:37.400Z,46.00
2018-02-13T14:41:38.968Z,45.40
2018-02-13T14:42:40.348Z,45.40
2018-02-13T14:43:42.864Z,45.40
2018-02-13T14:45:47.840Z,45.40
2018-02-13T14:46:49.352Z,45.30
2018-02-13T14:47:51.902Z,45.20
2018-02-13T14:48:53.396Z,45.30
2018-02-13T14:49:55.026Z,45.70
2018-02-13T14:51:59.580Z,45.60
2018-02-13T14:53:01.924Z,45.30
2018-02-13T14:56:09.790Z,45.30
2018-02-13T14:57:11.253Z,44.10
2018-02-13T14:58:12.675Z,44.30
2018-02-13T14:59:14.824Z,43.90
2018-02-13T15:00:17.974Z,43.50
2018-02-13T15:03:25.722Z,43.50
2018-02-13T15:05:30.506Z,43.50
2018-02-13T15:06:31.907Z,44.70
2018-02-13T15:09:40.272Z,44.60
2018-02-13T15:10:43.158Z,44.00
2018-02-13T15:11:44.682Z,43.80
2018-02-13T15:12:46.838Z,44.00
2018-02-13T15:13:48.244Z,44.00
2018-02-13T15:15:53.098Z,43.70
2018-02-13T15:18:06.824Z,43.60
2018-02-13T15:19:08.416Z,43.70
2018-02-13T15:21:13.168Z,43.90
2018-02-13T15:23:18.016Z,43.90
2018-02-13T15:25:22.656Z,44.40
2018-02-13T15:27:28.082Z,45.70
2018-02-13T15:28:29.665Z,44.80
2018-02-13T15:30:34.434Z,45.00
2018-02-13T15:31:36.060Z,45.10
2018-02-13T15:34:43.854Z,46.50
2018-02-13T15:35:45.397Z,46.70
2018-02-13T15:37:49.930Z,46.30
2018-02-13T15:38:52.836Z,46.00
2018-02-13T15:39:54.241Z,45.60
2018-02-13T15:40:55.662Z,46.50
2018-02-13T15:43:00.288Z,47.50
2018-02-13T15:44:01.682Z,47.50
2018-02-13T15:45:04.076Z,47.00
2018-02-13T15:46:05.488Z,46.90
2018-02-13T15:47:06.916Z,46.70
2018-02-13T15:48:09.986Z,47.50
2018-02-13T15:49:11.460Z,47.70
2018-02-13T15:50:12.846Z,47.50
2018-02-13T15:51:14.506Z,45.90
2018-02-13T15:58:35.015Z,47.90
2018-02-13T15:59:36.376Z,48.30
2018-02-13T16:00:39.111Z,47.90
2018-02-13T16:01:40.696Z,47.70
2018-02-13T16:03:45.426Z,48.30
2018-02-13T16:04:47.049Z,48.20
2018-02-13T16:06:51.558Z,46.50
2018-02-13T16:07:54.078Z,46.30